createdAt,value
2019-04-29T00:08:18.710Z,59.50
2019-04-29T00:22:28.469Z,59.62
2019-04-29T00:24:57.847Z,59.97
2019-04-29T00:27:27.285Z,59.83
2019-04-29T00:29:57.116Z,60.08
2019-04-29T00:33:05.773Z,60.74
2019-04-29T00:36:14.553Z,60.16
2019-04-29T00:39:03.143Z,60.58
2019-04-29T00:41:51.387Z,60.78
2019-04-29T00:50:25.396Z,60.75
2019-04-29T00:52:54.821Z,60.77
2019-04-29T00:58:14.821Z,61.47
2019-04-29T01:00:44.450Z,61.59
2019-04-29T01:03:13.936Z,62.03
2019-04-29T01:08:59.806Z,62.48
2019-04-29T01:20:46.747Z,62.52
2019-04-29T01:23:16.268Z,62.96
2019-04-29T01:32:09.041Z,63.07
2019-04-29T01:41:01.190Z,64.22
2019-04-29T01:43:49.580Z,64.15
2019-04-29T01:46:19.021Z,64.04
2019-04-29T01:55:15.127Z,64.02
2019-04-29T02:00:39.649Z,64.03
2019-04-29T02:03:08.978Z,64.55
2019-04-29T02:09:12.448Z,64.14
2019-04-29T02:14:56.168Z,64.12
2019-04-29T02:17:25.642Z,64.01
2019-04-29T02:19:54.967Z,63.95
2019-04-29T02:22:43.576Z,64.09
2019-04-29T02:25:52.744Z,64.05
2019-04-29T02:28:22.100Z,64.31
2019-04-29T02:31:30.808Z,65.75
2019-04-29T02:34:00.227Z,64.49
2019-04-29T02:36:30.185Z,64.48
2019-04-29T02:39:19.867Z,64.60
2019-04-29T02:42:28.608Z,65.30
2019-04-29T02:47:36.917Z,65.76
2019-04-29T02:50:25.354Z,65.67
2019-04-29T02:52:54.873Z,65.45
2019-04-29T02:55:43.449Z,65.45
2019-04-29T02:58:24.054Z,65.19
2019-04-29T03:01:12.348Z,65.06
2019-04-29T03:04:00.643Z,65.20
2019-04-29T03:06:29.946Z,65.24
2019-04-29T03:09:38.864Z,65.18
2019-04-29T03:12:08.450Z,64.92
2019-04-29T03:20:47.722Z,65.01
2019-04-29T03:29:32.461Z,65.16
2019-04-29T03:35:03.219Z,65.29
2019-04-29T03:37:32.797Z,64.97
2019-04-29T03:40:02.212Z,65.29
2019-04-29T03:43:10.926Z,64.91
2019-04-29T03:45:40.370Z,64.69
2019-04-29T03:48:09.833Z,65.26
2019-04-29T03:50:39.369Z,64.66
2019-04-29T03:53:08.753Z,64.77
2019-04-29T03:55:40.570Z,64.80
2019-04-29T03:58:48.763Z,64.71
2019-04-29T04:04:38.429Z,64.00
2019-04-29T04:07:39.411Z,63.97
2019-04-29T04:09:57.836Z,64.01
2019-04-29T04:12:27.476Z,63.62
2019-04-29T04:14:56.953Z,63.36
2019-04-29T04:23:02.143Z,63.29
2019-04-29T04:25:31.628Z,62.53
2019-04-29T04:28:21.471Z,62.26
2019-04-29T04:30:50.840Z,61.94
2019-04-29T04:33:20.192Z,61.50
2019-04-29T04:38:44.627Z,60.28
2019-04-29T04:41:32.924Z,58.40
2019-04-29T04:44:02.555Z,53.28
2019-04-29T04:46:31.907Z,51.57
2019-04-29T04:49:40.715Z,51.25
2019-04-29T05:01:18.906Z,46.51
2019-04-29T05:03:48.318Z,48.57
2019-04-29T05:06:17.638Z,48.09
2019-04-29T05:09:26.772Z,49.82
2019-04-29T05:15:08.191Z,49.36
2019-04-29T05:17:37.569Z,48.22
2019-04-29T05:20:46.265Z,44.04
2019-04-29T05:23:15.887Z,39.03
2019-04-29T05:25:45.290Z,35.73
2019-04-29T05:28:54.132Z,32.78
2019-04-29T05:31:23.618Z,29.98
2019-04-29T05:33:53.132Z,29.70
2019-04-29T05:39:40.321Z,29.14
2019-04-29T05:48:45.672Z,37.66
2019-04-29T05:54:31.514Z,40.61
2019-04-29T05:56:58.354Z,41.96
2019-04-29T06:00:07.010Z,42.13
2019-04-29T06:02:38.825Z,42.24
2019-04-29T06:08:09.362Z,42.63
2019-04-29T06:10:41.926Z,43.64
2019-04-29T06:13:10.032Z,43.53
2019-04-29T06:15:39.407Z,44.06
2019-04-29T06:18:08.804Z,43.74
2019-04-29T06:20:38.326Z,44.30
2019-04-29T06:23:07.938Z,43.80
2019-04-29T06:25:37.484Z,44.43
2019-04-29T06:28:07.051Z,44.06
2019-04-29T06:36:33.166Z,42.42
2019-04-29T06:39:41.874Z,43.02
2019-04-29T06:42:15.484Z,42.59
2019-04-29T06:47:37.953Z,42.53
2019-04-29T06:59:14.020Z,41.83
2019-04-29T07:01:43.658Z,41.75
2019-04-29T07:13:11.187Z,39.76
2019-04-29T07:15:43.464Z,39.44
2019-04-29T07:18:11.891Z,39.04
2019-04-29T07:20:41.380Z,39.38
2019-04-29T07:23:50.047Z,38.79
2019-04-29T07:26:19.573Z,39.03
2019-04-29T07:31:46.605Z,38.14
2019-04-29T07:34:16.169Z,38.93
2019-04-29T07:37:24.866Z,38.58
2019-04-29T07:39:54.313Z,39.06
2019-04-29T07:43:07.842Z,36.91
2019-04-29T07:45:53.075Z,37.25
2019-04-29T07:48:22.598Z,37.35
2019-04-29T07:54:05.770Z,37.47
2019-04-29T07:56:37.845Z,36.80
2019-04-29T07:59:06.279Z,36.62
2019-04-29T08:01:55.647Z,36.95
2019-04-29T08:04:26.175Z,37.02
2019-04-29T08:07:34.959Z,35.95
2019-04-29T08:16:38.824Z,36.97
2019-04-29T08:24:52.576Z,36.06
2019-04-29T08:27:22.001Z,35.81
2019-04-29T08:33:07.602Z,33.68
2019-04-29T08:35:38.267Z,33.66
2019-04-29T08:38:08.675Z,34.98
2019-04-29T08:43:52.509Z,37.13
2019-04-29T08:50:00.006Z,34.51
2019-04-29T08:52:29.540Z,34.81
2019-04-29T08:54:58.883Z,34.62
2019-04-29T08:57:31.788Z,34.26
2019-04-29T08:59:59.692Z,34.30
2019-04-29T09:02:35.064Z,33.25
2019-04-29T09:05:00.322Z,33.82
2019-04-29T09:08:09.210Z,34.10
2019-04-29T09:13:40.362Z,34.25
2019-04-29T09:16:10.009Z,34.77
2019-04-29T09:18:39.444Z,35.40
2019-04-29T09:21:08.858Z,35.40
2019-04-29T09:23:57.311Z,34.85
2019-04-29T09:26:45.562Z,34.48
2019-04-29T09:29:33.670Z,35.31
2019-04-29T09:35:33.787Z,35.45
2019-04-29T09:38:11.854Z,35.41
2019-04-29T09:41:20.552Z,34.97
2019-04-29T09:46:50.523Z,34.37
2019-04-29T09:49:19.951Z,34.89
2019-04-29T09:51:49.469Z,33.77
2019-04-29T09:54:18.900Z,35.25
2019-04-29T09:56:48.305Z,37.04
2019-04-29T10:11:23.280Z,35.35
2019-04-29T10:17:06.701Z,34.81
2019-04-29T10:22:17.479Z,34.39
2019-04-29T10:24:46.981Z,34.56
2019-04-29T10:39:34.841Z,34.54
2019-04-29T10:42:43.581Z,33.35
2019-04-29T10:48:43.231Z,32.90
2019-04-29T11:12:26.036Z,33.28
2019-04-29T11:21:29.350Z,30.52
2019-04-29T11:27:12.555Z,30.43
2019-04-29T11:35:48.551Z,29.70
2019-04-29T11:53:45.041Z,30.99
2019-04-29T12:02:14.024Z,31.05
2019-04-29T12:05:04.180Z,32.27
2019-04-29T12:08:16.981Z,31.45
2019-04-29T12:13:49.468Z,30.14
2019-04-29T12:22:47.788Z,31.52
2019-04-29T12:31:32.678Z,31.65
2019-04-29T12:40:00.832Z,31.17
2019-04-29T12:42:49.105Z,30.84
2019-04-29T12:48:53.552Z,31.71
2019-04-29T12:51:23.079Z,31.95
2019-04-29T12:53:52.537Z,33.01
2019-04-29T12:59:17.347Z,30.87
2019-04-29T13:02:05.820Z,30.36
2019-04-29T13:04:49.931Z,30.45
2019-04-29T13:07:36.225Z,29.96
2019-04-29T13:16:19.987Z,28.24
2019-04-29T13:30:30.183Z,26.41
2019-04-29T13:33:01.162Z,26.17
2019-04-29T13:35:31.143Z,25.23
2019-04-29T13:38:00.509Z,26.32
2019-04-29T13:40:33.141Z,24.70
2019-04-29T13:43:01.412Z,24.74
2019-04-29T13:45:38.135Z,24.82
2019-04-29T13:48:31.094Z,24.91
2019-04-29T13:51:07.308Z,24.73
2019-04-29T13:53:36.684Z,24.27
2019-04-29T13:56:13.955Z,23.00
2019-04-29T13:58:37.264Z,23.96
2019-04-29T14:01:39.817Z,22.68
2019-04-29T14:04:14.028Z,22.32
2019-04-29T14:06:56.185Z,23.64
2019-04-29T14:09:16.734Z,22.81
2019-04-29T14:12:00.654Z,23.11
2019-04-29T14:14:17.964Z,23.69
2019-04-29T14:16:48.607Z,23.34
2019-04-29T14:19:20.438Z,23.09
2019-04-29T14:21:49.353Z,23.55
2019-04-29T14:24:18.729Z,23.84
2019-04-29T14:26:48.182Z,25.04
2019-04-29T14:29:17.607Z,25.48
2019-04-29T14:31:49.456Z,25.78
2019-04-29T14:34:34.780Z,26.54
2019-04-29T14:37:19.640Z,27.21
2019-04-29T14:39:37.218Z,26.94
2019-04-29T14:48:20.053Z,27.58
2019-04-29T14:59:42.087Z,27.84
2019-04-29T15:02:18.858Z,27.45
2019-04-29T15:04:48.610Z,27.83
2019-04-29T15:07:18.132Z,27.54
2019-04-29T15:09:58.200Z,27.93
2019-04-29T15:12:51.974Z,27.87
2019-04-29T15:15:48.119Z,27.89
2019-04-29T15:18:49.893Z,26.44
2019-04-29T15:21:33.948Z,24.80
2019-04-29T15:24:03.942Z,24.87
2019-04-29T15:26:33.364Z,24.61
2019-04-29T15:32:53.224Z,23.58
2019-04-29T15:35:24.235Z,24.45
2019-04-29T15:38:14.287Z,23.95
2019-04-29T15:40:43.895Z,25.02
2019-04-29T15:43:13.285Z,26.21
2019-04-29T15:46:22.201Z,27.22
2019-04-29T15:51:49.234Z,29.01
2019-04-29T16:00:22.953Z,29.89
2019-04-29T16:02:52.099Z,30.62
2019-04-29T16:05:31.461Z,31.20
2019-04-29T16:08:11.349Z,31.35
2019-04-29T16:11:01.163Z,31.25
2019-04-29T16:13:30.571Z,31.76
2019-04-29T16:15:59.909Z,32.15
2019-04-29T16:18:29.410Z,31.99
2019-04-29T16:20:58.797Z,32.11
2019-04-29T16:23:32.958Z,32.22
2019-04-29T16:25:59.363Z,31.96
2019-04-29T16:28:31.768Z,31.87
2019-04-29T16:31:04.902Z,31.83
2019-04-29T16:33:31.146Z,31.92
2019-04-29T16:36:04.900Z,31.97
2019-04-29T16:38:31.736Z,32.09
2019-04-29T16:41:26.169Z,32.28
2019-04-29T16:43:56.007Z,32.31
2019-04-29T16:46:35.820Z,32.44
2019-04-29T16:48:59.784Z,32.62
2019-04-29T16:51:40.897Z,32.65
2019-04-29T16:57:05.488Z,33.10
2019-04-29T16:59:35.135Z,34.13
2019-04-29T17:02:04.778Z,33.60
2019-04-29T17:04:34.166Z,33.98
2019-04-29T17:07:12.249Z,33.77
2019-04-29T17:10:12.827Z,34.33
2019-04-29T17:12:47.422Z,35.49
2019-04-29T17:15:24.827Z,35.57
2019-04-29T17:17:48.210Z,34.71
2019-04-29T17:21:04.736Z,34.37
2019-04-29T17:29:38.542Z,34.21
2019-04-29T17:32:12.049Z,34.13
2019-04-29T17:37:43.920Z,34.53
2019-04-29T17:43:22.356Z,34.55
2019-04-29T17:46:00.619Z,35.07
2019-04-29T17:48:42.733Z,34.88
2019-04-29T17:51:12.464Z,35.48
2019-04-29T17:53:46.043Z,35.53
2019-04-29T17:56:35.080Z,35.65
2019-04-29T18:05:19.498Z,36.44
2019-04-29T18:08:07.766Z,37.16
2019-04-29T18:19:34.842Z,38.92
2019-04-29T18:22:31.878Z,40.01
2019-04-29T18:25:11.661Z,40.08
2019-04-29T18:27:41.193Z,40.46
2019-04-29T18:30:56.142Z,40.66
2019-04-29T18:33:23.110Z,40.71
2019-04-29T18:36:02.022Z,40.72
2019-04-29T18:38:26.260Z,40.88
2019-04-29T18:40:55.852Z,40.99
2019-04-29T18:43:26.595Z,41.13
2019-04-29T18:46:16.725Z,41.13
2019-04-29T18:48:47.504Z,41.30
2019-04-29T18:51:20.868Z,41.40
2019-04-29T18:53:48.137Z,41.56
2019-04-29T18:59:13.388Z,42.12
2019-04-29T19:02:22.262Z,42.28
2019-04-29T19:05:10.589Z,42.68
2019-04-29T19:13:20.106Z,42.91
2019-04-29T19:15:49.655Z,43.03
2019-04-29T19:18:21.111Z,43.31
2019-04-29T19:20:52.961Z,43.57
2019-04-29T19:23:29.431Z,43.72
2019-04-29T19:25:57.101Z,44.06
2019-04-29T19:28:31.036Z,44.46
2019-04-29T19:31:03.159Z,44.67
2019-04-29T19:33:37.594Z,44.67
2019-04-29T19:36:02.308Z,44.74
2019-04-29T19:38:31.785Z,44.62
2019-04-29T19:41:01.179Z,45.24
2019-04-29T19:43:30.747Z,45.83
2019-04-29T19:46:00.201Z,45.99
2019-04-29T19:48:29.549Z,46.14
2019-04-29T19:51:18.122Z,46.58
2019-04-29T19:53:30.295Z,46.08
2019-04-29T19:56:04.122Z,45.95
2019-04-29T19:58:32.030Z,46.41
2019-04-29T20:01:11.816Z,46.59
2019-04-29T20:03:37.815Z,46.39
2019-04-29T20:06:47.822Z,46.67
2019-04-29T20:14:59.029Z,47.34
2019-04-29T20:17:59.627Z,47.11
2019-04-29T20:20:48.133Z,47.04
2019-04-29T20:23:25.090Z,48.13
2019-04-29T20:25:49.072Z,48.27
2019-04-29T20:28:21.442Z,48.57
2019-04-29T20:30:55.597Z,48.75
2019-04-29T20:33:22.736Z,48.59
2019-04-29T20:35:55.752Z,49.25
2019-04-29T20:38:25.428Z,49.09
2019-04-29T20:41:08.183Z,49.02
2019-04-29T20:43:38.076Z,49.15
2019-04-29T20:46:09.431Z,49.78
2019-04-29T20:48:38.990Z,50.13
2019-04-29T20:51:13.161Z,51.02
2019-04-29T20:53:46.076Z,49.88
2019-04-29T20:56:23.732Z,49.93
2019-04-29T20:58:47.003Z,50.43
2019-04-29T21:01:25.476Z,49.81
2019-04-29T21:07:24.203Z,50.22
2019-04-29T21:09:55.794Z,49.80
2019-04-29T21:12:55.811Z,49.71
2019-04-29T21:15:30.708Z,50.02
2019-04-29T21:18:00.111Z,50.38
2019-04-29T21:20:29.479Z,51.00
2019-04-29T21:23:00.917Z,50.37
2019-04-29T21:25:30.752Z,51.04
2019-04-29T21:28:02.195Z,51.44
2019-04-29T21:30:35.482Z,51.27
2019-04-29T21:33:02.419Z,50.92
2019-04-29T21:35:54.431Z,50.91
2019-04-29T21:39:01.943Z,51.10
2019-04-29T21:41:50.658Z,50.95
2019-04-29T21:44:23.744Z,50.27
2019-04-29T21:53:07.344Z,50.51
2019-04-29T21:55:36.739Z,50.28
2019-04-29T21:58:45.412Z,50.24
2019-04-29T22:06:40.903Z,51.06
2019-04-29T22:12:00.377Z,51.42
2019-04-29T22:20:56.060Z,51.73
2019-04-29T22:23:25.464Z,51.44
2019-04-29T22:25:56.786Z,51.37
2019-04-29T22:29:05.497Z,50.80
2019-04-29T22:34:36.642Z,51.24
2019-04-29T22:48:29.767Z,51.54
2019-04-29T22:50:59.130Z,51.57
2019-04-29T22:54:07.992Z,51.05
2019-04-29T22:56:37.408Z,50.96
2019-04-29T23:08:05.946Z,51.62
2019-04-29T23:11:14.801Z,51.51
2019-04-29T23:13:46.152Z,52.29
2019-04-29T23:16:15.850Z,51.97
2019-04-29T23:18:45.831Z,52.36
2019-04-29T23:21:56.011Z,51.71
2019-04-29T23:24:46.749Z,51.80
2019-04-29T23:27:19.641Z,52.05
2019-04-29T23:30:02.374Z,51.69
2019-04-29T23:35:20.757Z,52.44
2019-04-29T23:37:50.407Z,52.31
2019-04-29T23:40:20.335Z,51.94
2019-04-29T23:42:49.731Z,51.77
2019-04-29T23:46:00.588Z,51.87
2019-04-29T23:48:38.735Z,51.58
2019-04-29T23:57:06.206Z,51.99
